weather station
Area: 4758 km2
The highest point: Sněžka (1603 m.s.l.)
Total stations: 28
Stations online: 26
Stations offline: 2
Current weather
13°C

Meteorological map - weather stations in Královéhradecký

. The meteorological maps show weather information from WARIO weather stations

Weather stations Královéhradecký

 UpdatesNameStatusTemperatureHumidityWind speedWind direction
5.7.2020 02:59Božanov11.3 °C86.9 %0.0 m/s NE
5.7.2020 02:58Červený Kostelec - Bohdašín14.5 °C83.9 %1.2 m/s SW
5.7.2020 02:59Červený Kostelec - Stolín11.1 °C96.8 %0.0 m/s SW
5.7.2020 02:58Brzice14.1 °C91.9 %1.0 m/s NE
5.7.2020 02:59Chlumec nad Cidlinou IV15.4 °C85.0 %0.7 m/s NE
5.7.2020 02:59Chlumec nad Cidlinou II15.1 °C87.8 %0.0 m/s NE
5.7.2020 02:58Hradec Králové - Plotiště nad Labem12.8 °C93.9 %0.9 m/s N
5.7.2020 02:47Vrchlabí12.9 °C97.5 %0.6 m/s NE
5.7.2020 02:58Dvůr Králové nad Labem12.4 °C92.6 %1.0 m/s NW
5.7.2020 02:58Hajnice10.7 °C94.2 %0.0 m/s NW
5.7.2020 02:59Černilov12.2 °C96.7 %0.0 m/s E
5.7.2020 02:58Jičín13.0 °C88.3 %0.7 m/s E
5.7.2020 02:58Kacákova Lhota12.8 °C77.6 %0.0 m/s N
5.7.2020 02:59Červený Kostelec - Kemp Brodský12.5 °C96.9 %0.0 m/s NW
5.7.2020 02:58Hradec Králové13.0 °C87.4 %0.0 m/s SE
28.6.2020 18:11Pecka - Horní Javoří26.5 °C61.4 %0.6 m/s S
5.7.2020 02:58Vrchovnice12.1 °C95.9 %0.0 m/s NE
5.7.2020 02:58Janatov °C %0.7 m/s W
5.7.2020 02:59Hradec Králové - Roudnička13.3 °C87.3 %0.6 m/s E
5.7.2020 02:58Pohoří12.3 °C92.4 %1.5 m/s E
5.7.2020 02:59Police nad Metují11.1 °C98.2 %0.0 m/s SE
5.7.2020 02:58Zábřezí - Řečice13.7 °C91.0 %1.2 m/s NE
5.7.2020 02:58Skuřina15.1 °C75.2 %0.0 m/s SW
5.7.2020 02:59Sobotka14.5 °C88.8 %0.0 m/s NE
5.7.2020 02:59Trutnov13.9 °C100.0 %1.2 m/s SE
5.7.2020 02:58Vrchlabí10.8 °C88.4 %0.6 m/s W
5.7.2020 02:58Vysoká nad Labem14.4 °C75.3 %0.0 m/s NE
5.7.2020 02:59Lužec nad Cidlinou14.3 °C100.0 %0.3 m/s E
Email notifications
Enter your email address to subscribe to notifications about news at warioweather.com. Your email address will not be used for any purpose other than sending these emails and will not be provided to any third party. The subscription can be ended at any time.
All data are only indicative. The portal administrator has no responsibility for potentially incorrect data and related consequences. Publishing or further sharing of content from www.warioweather.com is only allowed with written consent from WANET s.r.o.